Time;durP1;ratioP1;P1;durP2;ratioP2;P2;SDS_P1;SDS_P2;PMS_P1;PMS_P2;Temp;Humidity;BMP_temperature;BMP_pressure;BME280_temperature;BME280_humidity;BME280_pressure;Samples;Min_cycle;Max_cycle;Signal;HPM_P1;HPM_P2
2023/01/26 00:01:16;;;;;;;50.08;27.55;;;;;;;13.15;48.42;102636.56;5052096;28;20437;-35
2023/01/26 00:03:43;;;;;;;49.22;26.92;;;;;;;13.16;48.60;102638.28;5050822;28;20080;-35
2023/01/26 00:06:12;;;;;;;50.95;27.77;;;;;;;13.18;48.39;102635.53;5049613;28;20049;-35
2023/01/26 00:08:44;;;;;;;50.30;28.27;;;;;;;13.17;48.35;102637.34;5052600;28;20053;-34
2023/01/26 00:11:13;;;;;;;51.50;27.20;;;;;;;13.17;48.30;102632.00;5048426;28;20066;-35
2023/01/26 00:13:40;;;;;;;48.97;26.55;;;;;;;13.17;48.29;102633.81;5046652;28;20052;-34
2023/01/26 00:16:13;;;;;;;48.28;27.52;;;;;;;13.16;48.26;102643.59;5054929;28;20063;-34
2023/01/26 00:18:41;;;;;;;51.80;28.48;;;;;;;13.17;48.55;102645.31;5053217;28;20049;-34
2023/01/26 00:21:11;;;;;;;49.03;27.17;;;;;;;13.17;48.36;102640.00;5054745;28;20134;-34
2023/01/26 00:23:38;;;;;;;50.67;27.00;;;;;;;13.17;48.35;102640.00;5051685;28;20055;-34
2023/01/26 00:26:06;;;;;;;45.53;26.48;;;;;;;13.17;48.26;102624.03;5051403;28;20060;-34
2023/01/26 00:28:33;;;;;;;48.95;26.80;;;;;;;13.16;48.35;102621.44;5052682;28;20049;-36
2023/01/26 00:31:26;;;;;;;47.17;26.58;;;;;;;13.14;48.28;102623.31;5052651;28;20084;-34
2023/01/26 00:33:54;;;;;;;49.88;27.17;;;;;;;13.16;48.16;102626.78;5051030;28;20049;-34
2023/01/26 00:36:21;;;;;;;48.58;27.42;;;;;;;13.16;48.54;102618.78;5053263;28;20048;-34
2023/01/26 00:38:47;;;;;;;47.83;26.80;;;;;;;13.16;48.14;102613.47;5054629;28;20066;-34
2023/01/26 00:44:00;;;;;;;49.55;26.70;;;;;;;13.16;48.48;102606.34;5049223;28;20048;-34
2023/01/26 00:46:27;;;;;;;48.40;27.20;;;;;;;13.16;48.41;102605.47;5047239;28;20064;-34
2023/01/26 00:48:53;;;;;;;49.70;26.65;;;;;;;13.14;48.37;102594.88;5049309;28;20067;-34
2023/01/26 00:51:20;;;;;;;49.58;28.35;;;;;;;13.15;48.24;102596.63;5047951;28;20050;-34
2023/01/26 00:53:46;;;;;;;46.67;25.73;;;;;;;13.16;48.35;102590.38;5045621;28;20120;-36
2023/01/26 00:56:13;;;;;;;47.42;26.70;;;;;;;13.17;48.45;102592.06;5048049;28;20049;-36
2023/01/26 00:58:41;;;;;;;41.60;24.10;;;;;;;13.18;48.31;102591.13;5047813;28;20330;-37
2023/01/26 01:01:07;;;;;;;45.67;26.30;;;;;;;13.20;48.19;102593.72;5047839;28;20071;-34
2023/01/26 01:03:34;;;;;;;47.83;26.73;;;;;;;13.20;48.48;102583.09;5044232;28;20491;-34
2023/01/26 01:06:00;;;;;;;47.17;26.45;;;;;;;13.20;48.79;102589.25;5049930;28;20133;-34
2023/01/26 01:08:27;;;;;;;45.80;26.05;;;;;;;13.22;48.38;102589.16;5047738;28;20084;-34
2023/01/26 01:11:08;;;;;;;47.15;26.45;;;;;;;13.20;48.39;102578.63;5045571;28;20041;-34
2023/01/26 01:13:35;;;;;;;47.78;26.33;;;;;;;13.20;48.62;102581.28;5047523;28;20052;-35
2023/01/26 01:16:06;;;;;;;47.10;25.98;;;;;;;13.20;48.60;102591.06;5047779;28;21277;-34
2023/01/26 01:18:34;;;;;;;46.15;26.60;;;;;;;13.19;48.42;102579.56;5046341;28;20049;-35
2023/01/26 01:21:12;;;;;;;47.60;25.92;;;;;;;13.18;48.89;102577.81;5049295;28;20049;-34
2023/01/26 01:23:39;;;;;;;45.17;25.00;;;;;;;13.18;48.28;102572.50;5046877;28;20340;-34
2023/01/26 01:26:07;;;;;;;45.33;26.05;;;;;;;13.19;48.37;102576.03;5048013;28;20053;-34
2023/01/26 01:28:35;;;;;;;46.38;25.52;;;;;;;13.17;48.15;102581.44;5048720;28;20059;-35
2023/01/26 01:31:06;;;;;;;43.85;25.42;;;;;;;13.16;48.38;102577.06;5051851;28;20052;-35
2023/01/26 01:33:33;;;;;;;46.00;25.42;;;;;;;13.16;48.54;102581.53;5046373;28;20057;-34
2023/01/26 01:36:02;;;;;;;41.97;24.27;;;;;;;13.15;48.54;102583.31;5048261;28;20129;-34
2023/01/26 01:38:29;;;;;;;43.45;25.08;;;;;;;13.16;48.29;102581.53;5046860;28;20048;-34
2023/01/26 01:40:56;;;;;;;41.92;23.80;;;;;;;13.16;48.16;102573.53;5045219;28;20068;-34
2023/01/26 01:43:24;;;;;;;44.65;24.38;;;;;;;13.15;48.48;102572.69;5046237;28;20056;-34
2023/01/26 01:45:51;;;;;;;41.40;24.00;;;;;;;13.16;48.17;102581.53;5046171;28;20056;-35
2023/01/26 01:48:42;;;;;;;42.28;23.55;;;;;;;13.14;48.59;102581.56;5046815;28;20251;-34
2023/01/26 01:51:15;;;;;;;43.40;24.45;;;;;;;13.15;48.53;102574.47;5046380;28;20341;-35
2023/01/26 01:53:46;;;;;;;44.67;25.20;;;;;;;13.16;48.37;102578.84;5046359;28;20049;-34
2023/01/26 01:56:20;;;;;;;39.58;23.58;;;;;;;13.17;48.28;102577.91;5045843;28;20329;-35
2023/01/26 01:58:50;;;;;;;38.75;22.23;;;;;;;13.17;48.59;102581.44;5046643;28;20416;-34
2023/01/26 02:01:16;;;;;;;42.92;23.77;;;;;;;13.19;48.45;102576.91;5042864;28;20076;-34
2023/01/26 02:03:46;;;;;;;39.58;23.17;;;;;;;13.19;48.45;102576.91;5041507;28;20051;-34
2023/01/26 02:06:15;;;;;;;41.13;24.27;;;;;;;13.20;48.39;102578.63;5041725;28;20328;-35
2023/01/26 02:08:41;;;;;;;39.65;22.42;;;;;;;13.22;48.37;102568.72;5046298;28;20425;-35
2023/01/26 02:11:40;;;;;;;38.75;23.00;;;;;;;13.20;48.51;102569.78;5044448;28;20440;-37
2023/01/26 02:14:10;;;;;;;41.28;23.60;;;;;;;13.22;48.55;102579.38;5043008;28;20055;-36
2023/01/26 02:16:38;;;;;;;37.58;22.10;;;;;;;13.22;48.78;102576.72;5046223;28;20133;-35
2023/01/26 02:19:18;;;;;;;37.55;22.02;;;;;;;13.21;48.39;102569.69;5045429;28;20045;-35
2023/01/26 02:21:48;;;;;;;40.97;23.00;;;;;;;13.23;48.44;102578.50;5047213;28;20049;-34
2023/01/26 02:24:24;;;;;;;38.42;22.08;;;;;;;13.22;48.53;102574.06;5042942;28;20068;-35
2023/01/26 02:26:53;;;;;;;36.13;20.45;;;;;;;13.23;48.64;102577.63;5044124;28;20051;-35
2023/01/26 02:29:20;;;;;;;34.25;20.83;;;;;;;13.23;48.74;102574.97;5044100;28;20369;-35
2023/01/26 02:31:47;;;;;;;37.03;21.45;;;;;;;13.21;48.54;102577.66;5045596;28;20048;-35
2023/01/26 02:34:14;;;;;;;36.08;21.17;;;;;;;13.21;48.74;102566.16;5048142;28;20077;-35
2023/01/26 02:36:41;;;;;;;35.45;20.45;;;;;;;13.20;48.61;102567.97;5043709;28;20396;-35
2023/01/26 02:39:19;;;;;;;35.83;21.02;;;;;;;13.21;48.81;102574.16;5046487;28;20143;-34
2023/01/26 02:44:33;;;;;;;36.22;21.20;;;;;;;13.20;48.40;102573.28;5049043;28;20132;-34
2023/01/26 02:46:59;;;;;;;37.92;21.20;;;;;;;13.20;48.89;102572.44;5048300;28;20064;-34
2023/01/26 02:52:12;;;;;;;37.17;20.50;;;;;;;13.22;48.33;102573.19;5044757;28;20048;-34
2023/01/26 02:57:25;;;;;;;34.72;20.35;;;;;;;13.22;48.94;102584.69;5043854;28;20049;-38
2023/01/26 02:59:51;;;;;;;35.97;21.17;;;;;;;13.24;48.74;102576.69;5046192;28;20546;-35
2023/01/26 03:02:18;;;;;;;34.58;19.98;;;;;;;13.24;48.93;102582.00;5044791;28;20053;-33
2023/01/26 03:04:45;;;;;;;37.30;21.42;;;;;;;13.24;49.09;102588.19;5041214;28;20053;-35
2023/01/26 03:07:11;;;;;;;30.95;18.25;;;;;;;13.26;49.11;102577.44;5041032;28;20389;-35
2023/01/26 03:09:38;;;;;;;31.77;18.95;;;;;;;13.27;48.87;102582.72;5044014;28;20049;-36
2023/01/26 03:12:04;;;;;;;31.27;18.60;;;;;;;13.28;49.07;102584.44;5046521;28;20075;-34
2023/01/26 03:14:31;;;;;;;34.15;20.50;;;;;;;13.29;48.58;102572.84;5044956;28;20438;-35
2023/01/26 03:16:57;;;;;;;33.13;19.50;;;;;;;13.30;48.83;102584.34;5045250;28;20055;-35
2023/01/26 03:27:46;;;;;;;30.83;18.17;;;;;;;13.31;49.29;102575.44;5042271;28;20137;-34
2023/01/26 03:30:15;;;;;;;29.27;17.70;;;;;;;13.32;48.93;102569.16;5044351;28;21193;-35
2023/01/26 03:32:42;;;;;;;28.45;17.20;;;;;;;13.31;49.14;102568.31;5043125;28;20048;-34
2023/01/26 03:35:14;;;;;;;31.00;19.42;;;;;;;13.31;49.08;102572.78;5041866;28;20060;-36
2023/01/26 03:37:45;;;;;;;29.00;18.00;;;;;;;13.30;49.18;102571.03;5042520;28;20048;-35
2023/01/26 03:56:44;;;;;;;28.70;18.08;;;;;;;13.31;49.24;102575.44;5044006;28;20144;-35
2023/01/26 03:59:14;;;;;;;27.60;15.70;;;;;;;13.31;49.25;102584.28;5046255;28;20049;-35
2023/01/26 04:09:59;;;;;;;28.50;17.70;;;;;;;13.31;49.54;102570.09;5041094;28;20076;-35
2023/01/26 04:12:26;;;;;;;26.48;16.80;;;;;;;13.30;49.31;102579.88;5046342;28;20053;-34
2023/01/26 04:23:16;;;;;;;26.23;16.20;;;;;;;13.29;49.52;102575.50;5045158;28;20049;-35
2023/01/26 04:25:43;;;;;;;28.17;16.75;;;;;;;13.30;50.21;102579.00;5046651;28;20071;-35
2023/01/26 04:28:09;;;;;;;25.90;16.02;;;;;;;13.30;49.61;102577.22;5042750;28;20054;-34
2023/01/26 04:30:36;;;;;;;25.90;15.85;;;;;;;13.31;49.51;102580.75;5047252;28;20044;-35
2023/01/26 04:33:03;;;;;;;25.42;15.57;;;;;;;13.31;49.45;102578.09;5044708;28;20076;-35
2023/01/26 04:35:29;;;;;;;26.05;16.17;;;;;;;13.33;49.44;102578.88;5049110;28;20041;-35
2023/01/26 04:37:56;;;;;;;26.48;16.70;;;;;;;13.33;49.46;102579.72;5047941;28;20060;-35
2023/01/26 04:40:22;;;;;;;24.10;15.48;;;;;;;13.33;49.65;102577.06;5045947;28;20049;-35
2023/01/26 04:42:49;;;;;;;26.70;15.65;;;;;;;13.34;49.69;102576.09;5047719;28;20045;-35
2023/01/26 04:45:16;;;;;;;24.80;15.27;;;;;;;13.36;49.47;102573.38;5048346;28;20052;-35
2023/01/26 04:47:42;;;;;;;23.50;14.27;;;;;;;13.37;49.83;102576.91;5048754;28;20056;-35
2023/01/26 04:50:09;;;;;;;23.40;14.20;;;;;;;13.38;49.59;102565.31;5047023;28;20045;-36
2023/01/26 04:52:36;;;;;;;23.45;14.45;;;;;;;13.39;49.43;102570.56;5051960;28;20107;-34
2023/01/26 04:55:03;;;;;;;26.13;15.07;;;;;;;13.40;49.39;102569.63;5045446;28;20052;-34
2023/01/26 04:57:29;;;;;;;25.13;15.10;;;;;;;13.40;49.71;102561.63;5044828;28;20065;-34
2023/01/26 04:59:56;;;;;;;24.30;14.60;;;;;;;13.40;49.41;102561.63;5043405;28;20055;-34
2023/01/26 05:02:22;;;;;;;28.77;15.48;;;;;;;13.42;49.65;102564.19;5046356;28;20353;-35
2023/01/26 05:04:49;;;;;;;25.60;15.07;;;;;;;13.43;50.16;102557.94;5046511;28;20052;-35
2023/01/26 05:07:15;;;;;;;25.08;14.35;;;;;;;13.41;49.80;102560.69;5044037;28;20623;-35
2023/01/26 05:09:42;;;;;;;26.13;15.10;;;;;;;13.41;49.91;102552.69;5043526;28;20045;-35
2023/01/26 05:14:54;;;;;;;23.42;14.63;;;;;;;13.42;49.81;102556.22;5046475;28;20541;-35
2023/01/26 05:17:20;;;;;;;22.23;14.23;;;;;;;13.43;49.83;102557.94;5044470;28;20045;-35
2023/01/26 05:19:47;;;;;;;25.25;15.10;;;;;;;13.42;49.65;102556.22;5045289;28;20087;-36
2023/01/26 05:22:13;;;;;;;25.48;14.80;;;;;;;13.42;49.79;102553.53;5044022;28;20045;-35
2023/01/26 05:24:40;;;;;;;29.13;15.70;;;;;;;13.42;49.85;102553.53;5049380;28;20048;-34
2023/01/26 05:27:21;;;;;;;26.83;16.35;;;;;;;13.42;49.77;102565.06;5048609;28;20055;-35
2023/01/26 05:29:49;;;;;;;25.48;15.52;;;;;;;13.42;49.94;102565.06;5047253;28;20444;-38
2023/01/26 05:32:16;;;;;;;24.75;14.95;;;;;;;13.42;49.92;102565.06;5046064;28;20433;-35
2023/01/26 05:34:43;;;;;;;25.08;15.60;;;;;;;13.42;49.93;102570.38;5046459;28;20064;-39
2023/01/26 05:37:10;;;;;;;26.50;15.18;;;;;;;13.43;50.23;102565.94;5048423;28;20051;-35
2023/01/26 05:39:40;;;;;;;24.67;14.90;;;;;;;13.43;49.85;102568.59;5047520;28;20128;-34
2023/01/26 05:42:06;;;;;;;23.33;14.60;;;;;;;13.43;49.93;102569.47;5049131;28;20056;-34
2023/01/26 05:44:33;;;;;;;27.17;16.00;;;;;;;13.43;49.95;102569.47;5051017;28;20151;-34
2023/01/26 05:46:59;;;;;;;25.35;15.75;;;;;;;13.43;50.19;102566.78;5047732;28;20329;-34
2023/01/26 05:49:26;;;;;;;25.42;15.48;;;;;;;13.43;49.65;102566.78;5051103;28;20048;-34
2023/01/26 05:51:52;;;;;;;24.88;15.45;;;;;;;13.43;50.25;102568.59;5048320;28;20752;-34
2023/01/26 05:54:19;;;;;;;25.00;14.27;;;;;;;13.44;50.06;102578.31;5045421;28;20052;-34
2023/01/26 05:56:45;;;;;;;23.40;14.52;;;;;;;13.45;50.19;102580.03;5047888;28;20333;-34
2023/01/26 05:59:13;;;;;;;26.85;15.60;;;;;;;13.44;50.00;102572.97;5045301;28;20092;-34
2023/01/26 06:01:40;;;;;;;23.83;15.43;;;;;;;13.44;49.52;102567.66;5046952;28;20045;-34
2023/01/26 06:04:06;;;;;;;25.90;16.00;;;;;;;13.44;49.92;102570.31;5040520;28;20045;-34
2023/01/26 06:06:33;;;;;;;24.02;14.43;;;;;;;13.43;49.82;102577.44;5037346;28;20091;-34
2023/01/26 06:08:59;;;;;;;26.50;14.48;;;;;;;13.43;50.29;102574.78;5042019;28;20052;-34
2023/01/26 06:11:26;;;;;;;26.67;15.02;;;;;;;13.45;50.11;102572.03;5043881;28;20128;-35
2023/01/26 06:13:52;;;;;;;23.02;13.80;;;;;;;13.45;50.18;102572.03;5045546;28;20135;-34
2023/01/26 06:16:19;;;;;;;24.63;15.45;;;;;;;13.44;50.63;102579.16;5048759;28;20051;-37
2023/01/26 06:18:49;;;;;;;25.25;15.05;;;;;;;13.45;50.19;102582.69;5045155;28;20068;-35
2023/01/26 06:21:15;;;;;;;24.63;14.27;;;;;;;13.45;50.52;102585.34;5041464;28;20049;-33
2023/01/26 06:23:43;;;;;;;25.38;15.45;;;;;;;13.45;50.27;102588.00;5042555;28;20049;-34
2023/01/26 06:26:09;;;;;;;24.48;14.10;;;;;;;13.45;49.96;102588.88;5046578;28;20049;-34
2023/01/26 06:28:36;;;;;;;26.63;15.93;;;;;;;13.45;50.16;102582.69;5046159;28;20045;-34
2023/01/26 06:31:04;;;;;;;27.60;15.57;;;;;;;13.45;50.12;102580.03;5046235;28;20049;-35
2023/01/26 06:33:36;;;;;;;23.30;14.90;;;;;;;13.44;50.31;102592.47;5045617;28;20143;-34
2023/01/26 06:36:11;;;;;;;26.88;14.55;;;;;;;13.44;50.23;102586.31;5050197;28;20055;-34
2023/01/26 06:38:43;;;;;;;24.95;15.57;;;;;;;13.45;50.10;102586.22;5041943;28;21127;-35
2023/01/26 06:41:10;;;;;;;25.63;15.32;;;;;;;13.45;50.27;102591.53;5043255;28;20063;-34
2023/01/26 06:43:37;;;;;;;27.30;16.10;;;;;;;13.46;50.12;102597.72;5039188;28;20051;-34
2023/01/26 06:46:05;;;;;;;25.95;14.30;;;;;;;13.47;50.13;102595.00;5042845;28;20052;-34
2023/01/26 06:48:33;;;;;;;27.67;16.13;;;;;;;13.48;50.19;102602.03;5047742;28;20139;-34
2023/01/26 06:51:24;;;;;;;28.83;16.60;;;;;;;13.49;50.28;102602.88;5045671;28;20049;-34
2023/01/26 06:53:53;;;;;;;26.27;15.75;;;;;;;13.51;50.15;102603.69;5044928;28;20045;-34
2023/01/26 06:56:21;;;;;;;23.58;15.13;;;;;;;13.53;50.21;102604.44;5047063;28;20063;-33
2023/01/26 06:58:48;;;;;;;28.70;15.98;;;;;;;13.53;50.14;102609.78;5048938;28;20063;-33
2023/01/26 07:01:20;;;;;;;27.27;16.02;;;;;;;13.53;50.11;102615.97;5047559;28;20056;-34
2023/01/26 07:03:48;;;;;;;25.38;15.00;;;;;;;13.52;50.09;102614.25;5043688;28;20052;-34
2023/01/26 07:06:15;;;;;;;24.65;14.63;;;;;;;13.53;49.94;102620.44;5046933;28;20131;-34
2023/01/26 07:08:41;;;;;;;27.73;16.08;;;;;;;13.53;50.31;102618.63;5046155;28;20052;-34
2023/01/26 07:11:08;;;;;;;26.88;16.02;;;;;;;13.53;50.08;102618.63;5045110;28;20052;-34
2023/01/26 07:13:35;;;;;;;23.90;14.65;;;;;;;13.53;49.98;102609.78;5048150;28;20053;-34
2023/01/26 07:16:07;;;;;;;26.80;15.70;;;;;;;13.53;50.30;102610.63;5044408;28;20050;-36
2023/01/26 07:18:35;;;;;;;29.65;16.35;;;;;;;13.53;50.61;102615.97;5045149;28;20049;-34
2023/01/26 07:21:04;;;;;;;26.40;15.07;;;;;;;13.54;50.12;102619.47;5044091;28;20041;-34
2023/01/26 07:23:31;;;;;;;28.38;16.58;;;;;;;13.53;50.09;102626.63;5044713;28;20159;-34
2023/01/26 07:26:00;;;;;;;28.23;15.75;;;;;;;13.53;50.32;102625.75;5043153;28;20107;-34
2023/01/26 07:28:29;;;;;;;27.40;16.13;;;;;;;13.55;49.95;102631.88;5046882;28;20456;-34
2023/01/26 07:31:03;;;;;;;28.25;15.85;;;;;;;13.53;50.23;102633.75;5044902;28;20334;-34
2023/01/26 07:33:32;;;;;;;26.83;16.13;;;;;;;13.53;50.31;102631.94;5046103;28;20407;-34
2023/01/26 07:35:59;;;;;;;30.70;16.15;;;;;;;13.54;50.16;102639.00;5045878;28;20061;-34
2023/01/26 07:38:29;;;;;;;28.02;16.80;;;;;;;13.55;50.54;102637.22;5042065;28;20365;-34
2023/01/26 07:40:56;;;;;;;28.67;16.88;;;;;;;13.53;50.00;102639.94;5043105;28;20132;-34
2023/01/26 07:43:23;;;;;;;27.67;16.17;;;;;;;13.55;50.29;102645.22;5046461;28;20047;-34
2023/01/26 07:45:52;;;;;;;29.40;16.75;;;;;;;13.54;50.31;102646.97;5040972;28;20076;-34
2023/01/26 07:48:21;;;;;;;29.15;17.10;;;;;;;13.55;50.24;102645.22;5044130;28;20049;-34
2023/01/26 07:50:49;;;;;;;29.95;17.25;;;;;;;13.54;49.92;102643.47;5042938;28;20056;-34
2023/01/26 07:53:21;;;;;;;27.38;16.08;;;;;;;13.56;50.30;102644.25;5039568;28;20164;-31
2023/01/26 07:55:48;;;;;;;29.83;16.58;;;;;;;13.55;50.36;102642.53;5045969;28;20415;-34
2023/01/26 07:58:15;;;;;;;30.95;18.27;;;;;;;13.55;50.54;102646.06;5046614;28;20063;-36
2023/01/26 08:00:41;;;;;;;29.77;16.80;;;;;;;13.55;50.29;102646.06;5048887;28;20123;-34
2023/01/26 08:03:08;;;;;;;30.02;18.13;;;;;;;13.57;50.32;102648.63;5046863;28;20060;-34
2023/01/26 08:05:35;;;;;;;29.73;17.38;;;;;;;13.55;50.31;102648.72;5047390;28;20084;-34
2023/01/26 08:08:03;;;;;;;29.85;17.58;;;;;;;13.58;50.24;102655.69;5047349;28;20310;-35
2023/01/26 08:10:32;;;;;;;29.10;17.20;;;;;;;13.57;50.30;102660.16;5049583;28;20345;-36
2023/01/26 08:12:59;;;;;;;29.05;17.00;;;;;;;13.59;50.33;102657.44;5052953;28;20341;-34
2023/01/26 08:15:27;;;;;;;30.77;17.55;;;;;;;13.58;49.96;102659.19;5049037;28;20500;-34
2023/01/26 08:17:54;;;;;;;28.10;17.10;;;;;;;13.59;50.32;102654.75;5049197;28;20120;-34
2023/01/26 08:20:21;;;;;;;30.52;17.77;;;;;;;13.61;50.08;102658.19;5051878;28;21157;-34
2023/01/26 08:22:48;;;;;;;27.35;17.02;;;;;;;13.63;49.83;102660.75;5048034;28;20321;-34
2023/01/26 08:25:14;;;;;;;29.38;16.73;;;;;;;13.63;50.57;102661.66;5045214;28;20400;-35
2023/01/26 08:27:41;;;;;;;29.55;16.95;;;;;;;13.65;50.11;102667.75;5048466;28;20111;-34
2023/01/26 08:30:08;;;;;;;30.65;17.05;;;;;;;13.65;50.42;102662.41;5051564;28;20054;-34
2023/01/26 08:32:35;;;;;;;31.52;18.02;;;;;;;13.66;50.29;102669.47;5048253;28;20392;-34
2023/01/26 08:35:02;;;;;;;30.02;17.10;;;;;;;13.67;50.43;102663.22;5046603;28;20139;-34
2023/01/26 08:37:28;;;;;;;29.70;16.98;;;;;;;13.69;50.01;102663.97;5047652;28;20124;-34
2023/01/26 08:39:55;;;;;;;27.80;16.45;;;;;;;13.70;50.24;102673.69;5041446;28;20048;-34
2023/01/26 08:42:21;;;;;;;27.80;16.90;;;;;;;13.71;50.17;102679.88;5046128;28;20060;-34
2023/01/26 08:44:48;;;;;;;28.33;16.60;;;;;;;13.71;50.34;102674.53;5051168;28;20052;-37
2023/01/26 08:47:15;;;;;;;33.17;17.73;;;;;;;13.72;50.21;102673.63;5046834;28;20102;-36
2023/01/26 08:49:41;;;;;;;33.50;17.20;;;;;;;13.73;50.19;102680.66;5048797;28;20059;-37
2023/01/26 08:52:08;;;;;;;30.75;16.60;;;;;;;13.74;49.98;102680.56;5050085;28;20055;-36
2023/01/26 08:54:34;;;;;;;30.08;17.10;;;;;;;13.75;49.86;102682.31;5045903;28;20451;-34
2023/01/26 08:57:01;;;;;;;32.78;18.17;;;;;;;13.75;50.27;102687.66;5048588;28;20049;-37
2023/01/26 08:59:27;;;;;;;30.80;17.25;;;;;;;13.77;50.22;102684.91;5049947;28;20344;-36
2023/01/26 09:01:54;;;;;;;29.35;17.83;;;;;;;13.77;50.26;102683.09;5048855;28;20052;-35
2023/01/26 09:04:21;;;;;;;30.33;17.67;;;;;;;13.79;50.52;102694.53;5049847;28;20106;-36
2023/01/26 09:06:47;;;;;;;30.27;17.48;;;;;;;13.80;50.45;102687.41;5043659;28;20132;-35
2023/01/26 09:09:14;;;;;;;29.48;17.08;;;;;;;13.81;50.29;102687.31;5047678;28;20056;-38
2023/01/26 09:11:41;;;;;;;32.67;18.48;;;;;;;13.83;50.28;102693.44;5047613;28;20052;-36
2023/01/26 09:14:08;;;;;;;29.88;17.60;;;;;;;13.85;50.15;102689.81;5048358;28;20107;-36
2023/01/26 09:16:34;;;;;;;34.60;19.63;;;;;;;13.87;50.34;102698.59;5046989;28;20049;-36
2023/01/26 09:19:01;;;;;;;31.80;18.30;;;;;;;13.88;50.21;102695.00;5047383;28;20130;-35
2023/01/26 09:21:27;;;;;;;34.95;20.08;;;;;;;13.89;49.98;102696.72;5047765;28;20052;-36
2023/01/26 09:23:55;;;;;;;35.20;18.75;;;;;;;13.91;50.06;102705.47;5045722;28;20076;-36
2023/01/26 09:26:22;;;;;;;34.63;19.73;;;;;;;13.92;50.16;102701.91;5043888;28;20386;-35
2023/01/26 09:28:50;;;;;;;36.05;19.77;;;;;;;13.92;50.52;102710.75;5050060;28;20049;-35
2023/01/26 09:31:17;;;;;;;34.15;19.38;;;;;;;13.93;50.22;102708.94;5049460;28;20343;-35
2023/01/26 09:33:44;;;;;;;34.65;19.88;;;;;;;13.94;50.20;102708.84;5047344;28;20144;-34
2023/01/26 09:36:11;;;;;;;38.65;20.92;;;;;;;13.95;50.08;102710.59;5048950;28;20460;-36
2023/01/26 09:38:38;;;;;;;40.88;21.45;;;;;;;13.97;50.02;102710.50;5047684;28;20041;-35
2023/01/26 09:41:24;;;;;;;42.28;22.70;;;;;;;13.97;50.45;102721.16;5046378;28;20118;-35
2023/01/26 09:43:58;;;;;;;41.67;21.55;;;;;;;13.99;50.14;102717.47;5046507;28;20047;-34
2023/01/26 09:46:48;;;;;;;42.40;22.77;;;;;;;14.01;49.72;102722.72;5049541;28;20060;-34
2023/01/26 09:49:25;;;;;;;44.80;23.48;;;;;;;14.02;50.24;102719.09;5047187;28;20052;-35
2023/01/26 09:52:09;;;;;;;42.83;22.02;;;;;;;14.05;49.78;102713.63;5046311;28;20053;-34
2023/01/26 09:54:51;;;;;;;41.35;22.30;;;;;;;14.06;50.12;102718.84;5048364;28;20049;-34
2023/01/26 09:57:38;;;;;;;42.42;23.13;;;;;;;14.07;50.35;102707.28;5046606;28;20323;-36
2023/01/26 10:00:26;;;;;;;46.80;24.85;;;;;;;14.14;50.67;102709.59;5048208;28;20325;-36
2023/01/26 10:03:30;;;;;;;39.25;22.88;;;;;;;14.18;50.14;102716.47;5041298;28;20326;-39
2023/01/26 10:06:12;;;;;;;38.75;21.83;;;;;;;14.21;50.48;102725.19;5045347;28;20049;-36
2023/01/26 10:08:42;;;;;;;44.85;23.40;;;;;;;14.25;50.34;102726.75;5046710;28;20037;-36
2023/01/26 10:11:26;;;;;;;45.42;23.98;;;;;;;14.27;49.63;102722.19;5041684;28;20055;-35
2023/01/26 10:13:56;;;;;;;43.30;24.38;;;;;;;14.32;50.00;102719.28;5046722;28;20049;-36
2023/01/26 10:16:24;;;;;;;42.33;22.92;;;;;;;14.36;49.84;102719.97;5047979;28;20057;-35
2023/01/26 10:18:59;;;;;;;44.45;24.08;;;;;;;14.41;49.97;102718.75;5046556;28;20135;-36
2023/01/26 10:21:31;;;;;;;48.85;24.83;;;;;;;14.47;49.13;102717.56;5045795;28;20460;-36
2023/01/26 10:24:00;;;;;;;62.33;31.35;;;;;;;14.55;50.16;102704.69;5041243;28;20061;-36
2023/01/26 10:26:30;;;;;;;71.70;36.97;;;;;;;14.63;50.44;102706.94;5044042;28;20099;-38
2023/01/26 10:28:57;;;;;;;101.10;50.58;;;;;;;14.68;50.51;102710.22;5044682;28;20049;-36
2023/01/26 10:31:27;;;;;;;110.18;54.05;;;;;;;14.74;51.14;102708.06;5048414;28;20041;-35
2023/01/26 10:33:58;;;;;;;112.57;56.72;;;;;;;14.80;50.42;102704.19;5043744;28;20068;-36
2023/01/26 10:36:29;;;;;;;124.60;62.28;;;;;;;14.86;51.55;102717.19;5045598;28;20049;-37
2023/01/26 10:39:06;;;;;;;129.57;63.60;;;;;;;14.92;51.56;102707.97;5042606;28;20447;-39
2023/01/26 10:41:33;;;;;;;147.82;70.45;;;;;;;14.98;51.03;102721.81;5046604;28;20056;-37
2023/01/26 10:44:11;;;;;;;140.23;71.32;;;;;;;15.03;51.53;102719.78;5043986;28;20149;-36
2023/01/26 10:46:40;;;;;;;140.07;69.20;;;;;;;15.10;51.63;102730.94;5042043;28;20059;-38
2023/01/26 10:49:06;;;;;;;148.30;72.68;;;;;;;15.15;50.64;102723.50;5035126;28;20071;-36
2023/01/26 10:51:38;;;;;;;142.35;71.88;;;;;;;15.21;50.64;102724.97;5032466;28;20431;-37
2023/01/26 10:54:18;;;;;;;142.93;70.50;;;;;;;15.25;51.45;102722.03;5036460;28;20057;-38
2023/01/26 10:56:49;;;;;;;133.20;65.97;;;;;;;15.31;51.29;102724.34;5041330;28;20057;-36
2023/01/26 10:59:21;;;;;;;142.55;70.38;;;;;;;15.37;51.46;102725.81;5014111;28;20095;-36
2023/01/26 11:01:56;;;;;;;133.18;67.93;;;;;;;15.42;51.01;102722.84;5042156;28;20138;-36
2023/01/26 11:04:24;;;;;;;129.10;64.97;;;;;;;15.47;51.08;102728.78;5030426;28;20057;-37
2023/01/26 11:06:51;;;;;;;129.98;64.85;;;;;;;15.51;51.29;102730.31;5036680;28;20059;-36
2023/01/26 11:09:30;;;;;;;133.23;65.93;;;;;;;15.57;50.01;102726.44;5025824;28;20049;-35
2023/01/26 11:12:02;;;;;;;122.05;61.58;;;;;;;15.63;49.81;102724.25;5036742;28;20131;-36
2023/01/26 11:14:30;;;;;;;122.57;61.85;;;;;;;15.70;50.27;102725.63;5036649;28;20049;-34
2023/01/26 11:17:21;;;;;;;128.40;62.70;;;;;;;15.75;49.52;102712.84;5036661;28;20424;-35
2023/01/26 11:20:08;;;;;;;127.43;63.92;;;;;;;15.81;49.88;102708.97;5004042;28;20211;-38
2023/01/26 11:23:05;;;;;;;126.25;62.85;;;;;;;15.88;49.19;102706.75;5042320;28;20080;-35
2023/01/26 11:26:04;;;;;;;119.35;60.90;;;;;;;15.94;48.95;102706.38;5040874;28;20045;-40
2023/01/26 11:28:49;;;;;;;117.53;61.00;;;;;;;15.97;49.63;102704.38;5039290;28;20079;-34
2023/01/26 11:31:42;;;;;;;121.25;60.60;;;;;;;16.02;48.56;102710.31;5035829;28;20430;-37
2023/01/26 11:34:26;;;;;;;119.43;60.33;;;;;;;16.06;48.34;102713.66;5041738;28;20333;-36
2023/01/26 11:37:20;;;;;;;113.32;60.22;;;;;;;16.11;49.18;102708.00;5040363;28;20071;-36
2023/01/26 11:39:57;;;;;;;113.75;60.25;;;;;;;16.15;48.13;102705.03;5039601;28;20384;-35
2023/01/26 11:42:43;;;;;;;118.47;60.33;;;;;;;16.18;48.95;102712.03;5040891;28;20056;-36
2023/01/26 11:46:11;;;;;;;114.88;58.42;;;;;;;16.20;49.01;102707.44;5036251;28;20049;-37
2023/01/26 11:48:47;;;;;;;109.80;55.65;;;;;;;16.26;47.70;102709.75;4966863;28;20050;-36
2023/01/26 11:51:13;;;;;;;108.55;55.50;;;;;;;16.29;48.82;102707.72;4974353;28;20489;-37
2023/01/26 11:54:07;;;;;;;109.97;58.22;;;;;;;16.32;48.24;102705.81;5017552;28;20049;-35
2023/01/26 11:56:52;;;;;;;109.35;56.28;;;;;;;16.36;48.02;102701.97;5039529;28;20167;-35
2023/01/26 11:59:35;;;;;;;106.97;53.92;;;;;;;16.40;48.47;102703.50;5033158;28;20052;-37
2023/01/26 12:02:19;;;;;;;105.35;55.63;;;;;;;16.44;47.89;102694.31;5040898;28;20497;-35
2023/01/26 12:04:46;;;;;;;101.32;54.00;;;;;;;16.46;47.99;102701.31;5041892;28;20080;-35
2023/01/26 12:07:29;;;;;;;103.82;53.83;;;;;;;16.49;47.94;102687.72;5034603;28;20072;-35
2023/01/26 12:09:59;;;;;;;100.45;50.97;;;;;;;16.52;47.75;102687.53;5036535;28;20049;-35
2023/01/26 12:12:31;;;;;;;101.55;53.00;;;;;;;16.55;48.15;102681.09;5032186;28;20120;-35
2023/01/26 12:15:05;;;;;;;102.75;52.30;;;;;;;16.56;47.58;102682.81;5033284;28;20057;-37
2023/01/26 12:17:50;;;;;;;98.15;51.38;;;;;;;16.59;48.27;102682.63;5036539;28;20053;-35